Time;durP1;ratioP1;P1;durP2;ratioP2;P2;SDS_P1;SDS_P2;PMS_P1;PMS_P2;Temp;Humidity;BMP_temperature;BMP_pressure;BME280_temperature;BME280_humidity;BME280_pressure;Samples;Min_cycle;Max_cycle;Signal;HPM_P1;HPM_P2
2022/03/28 00:01:51;;;;;;;15.88;4.70;;;12.60;59.00;;;;;;5050879;28;20036;-61
2022/03/28 00:04:16;;;;;;;16.50;4.28;;;12.50;59.00;;;;;;5034261;28;20087;-61
2022/03/28 00:06:42;;;;;;;15.55;4.05;;;12.50;59.10;;;;;;5047215;28;20033;-62
2022/03/28 00:09:08;;;;;;;17.60;3.97;;;12.50;59.20;;;;;;5035207;28;20378;-61
2022/03/28 00:11:33;;;;;;;19.67;4.97;;;12.50;59.20;;;;;;5036912;28;20045;-62
2022/03/28 00:13:59;;;;;;;17.52;4.20;;;12.40;59.30;;;;;;5035014;28;20028;-61
2022/03/28 00:16:25;;;;;;;12.75;4.03;;;12.40;59.40;;;;;;5043045;28;20021;-62
2022/03/28 00:18:50;;;;;;;16.35;5.10;;;12.40;59.50;;;;;;5038498;28;20052;-61
2022/03/28 00:21:16;;;;;;;12.18;4.85;;;12.40;59.50;;;;;;5035250;28;20037;-61
2022/03/28 00:23:42;;;;;;;14.50;4.70;;;12.40;59.60;;;;;;5034363;28;20108;-61
2022/03/28 00:26:07;;;;;;;14.45;4.93;;;12.30;59.60;;;;;;5017204;28;20040;-61
2022/03/28 00:28:33;;;;;;;18.13;4.50;;;12.30;59.70;;;;;;5047530;28;20025;-61
2022/03/28 00:30:59;;;;;;;14.88;4.50;;;12.30;59.80;;;;;;5041339;28;20446;-62
2022/03/28 00:33:24;;;;;;;15.95;4.88;;;12.30;59.90;;;;;;5041474;28;20128;-61
2022/03/28 00:35:50;;;;;;;19.00;4.97;;;12.20;60.00;;;;;;5054403;28;20029;-62
2022/03/28 00:38:16;;;;;;;15.95;4.57;;;12.20;60.10;;;;;;5053629;28;20017;-61
2022/03/28 00:40:42;;;;;;;18.48;4.45;;;12.20;60.20;;;;;;5052284;28;20029;-61
2022/03/28 00:43:09;;;;;;;15.25;4.93;;;12.10;60.30;;;;;;5044484;28;20025;-61
2022/03/28 00:45:37;;;;;;;16.40;4.53;;;12.10;60.40;;;;;;5034674;28;20040;-61
2022/03/28 00:48:03;;;;;;;17.17;4.78;;;12.10;60.40;;;;;;5044482;28;20032;-61
2022/03/28 00:50:30;;;;;;;18.95;5.93;;;12.10;60.50;;;;;;5037942;28;20029;-61
2022/03/28 00:52:57;;;;;;;13.75;5.40;;;12.10;60.50;;;;;;5036756;28;20127;-61
2022/03/28 00:55:23;;;;;;;14.85;4.32;;;12.10;60.60;;;;;;5052462;28;20029;-61
2022/03/28 00:57:49;;;;;;;15.65;4.53;;;12.10;60.70;;;;;;5046531;28;20328;-61
2022/03/28 01:00:15;;;;;;;16.30;5.00;;;12.00;60.80;;;;;;5016808;28;20029;-61
2022/03/28 01:02:41;;;;;;;15.52;4.90;;;12.00;60.90;;;;;;5034231;28;20047;-62
2022/03/28 01:05:07;;;;;;;14.43;4.60;;;12.00;61.10;;;;;;5035283;28;20040;-61
2022/03/28 01:07:33;;;;;;;18.38;5.15;;;11.90;61.10;;;;;;5032991;28;20041;-61
2022/03/28 01:10:01;;;;;;;19.20;4.90;;;11.90;61.20;;;;;;5051511;28;20033;-61
2022/03/28 01:12:27;;;;;;;16.98;5.20;;;11.90;61.20;;;;;;5050247;28;20030;-61
2022/03/28 01:14:54;;;;;;;17.02;4.45;;;11.90;61.30;;;;;;5043400;28;20033;-61
2022/03/28 01:20:04;;;;;;;18.77;5.47;;;11.90;61.40;;;;;;5034309;28;20040;-61
2022/03/28 01:22:30;;;;;;;17.17;5.22;;;11.80;61.50;;;;;;5042933;28;20106;-62
2022/03/28 01:25:01;;;;;;;18.08;6.00;;;11.80;61.60;;;;;;5037855;28;20427;-62
2022/03/28 01:27:27;;;;;;;18.17;4.93;;;11.80;61.70;;;;;;5037892;28;20029;-61
2022/03/28 01:29:53;;;;;;;16.98;4.57;;;11.80;61.80;;;;;;5018886;28;20033;-61
2022/03/28 01:32:18;;;;;;;15.75;4.53;;;11.70;61.80;;;;;;5033667;28;20180;-61
2022/03/28 01:34:44;;;;;;;18.77;5.10;;;11.70;61.80;;;;;;5042824;28;20032;-61
2022/03/28 01:37:09;;;;;;;16.40;5.07;;;11.70;61.90;;;;;;5035254;28;20034;-61
2022/03/28 01:39:35;;;;;;;16.80;4.53;;;11.60;62.00;;;;;;5016917;28;20052;-61
2022/03/28 01:42:00;;;;;;;14.10;4.40;;;11.60;62.00;;;;;;5037448;28;20087;-62
2022/03/28 01:44:26;;;;;;;16.58;5.00;;;11.60;62.10;;;;;;5033970;28;20446;-61
2022/03/28 01:46:52;;;;;;;15.73;4.38;;;11.60;62.20;;;;;;5033924;28;20049;-61
2022/03/28 01:49:19;;;;;;;17.25;5.18;;;11.60;62.30;;;;;;5033964;28;20029;-61
2022/03/28 01:51:46;;;;;;;14.35;4.63;;;11.50;62.40;;;;;;5037361;28;20048;-61
2022/03/28 01:54:12;;;;;;;19.35;5.68;;;11.50;62.40;;;;;;5052985;28;20021;-61
2022/03/28 01:56:38;;;;;;;16.85;4.47;;;11.50;62.40;;;;;;5036362;28;20509;-61
2022/03/28 01:59:05;;;;;;;16.45;5.25;;;11.50;62.50;;;;;;5043392;28;20032;-61
2022/03/28 02:01:31;;;;;;;23.08;6.60;;;11.50;62.60;;;;;;5038966;28;20178;-61
2022/03/28 02:03:57;;;;;;;17.58;5.65;;;11.50;62.60;;;;;;5040797;28;20092;-61
2022/03/28 02:06:23;;;;;;;15.38;3.78;;;11.40;62.60;;;;;;5056161;28;20040;-61
2022/03/28 02:08:48;;;;;;;15.75;4.50;;;11.40;62.70;;;;;;5054780;28;20025;-61
2022/03/28 02:11:14;;;;;;;16.40;4.50;;;11.40;62.70;;;;;;5056131;28;20028;-61
2022/03/28 02:13:39;;;;;;;12.43;4.97;;;11.30;62.90;;;;;;5037307;28;20048;-61
2022/03/28 02:16:06;;;;;;;18.58;5.43;;;11.30;62.90;;;;;;5050938;28;20041;-61
2022/03/28 02:18:32;;;;;;;13.90;5.10;;;11.30;63.00;;;;;;5037927;28;20084;-61
2022/03/28 02:20:57;;;;;;;19.48;5.60;;;11.30;63.00;;;;;;5038331;28;20029;-61
2022/03/28 02:23:23;;;;;;;18.42;4.53;;;11.30;63.10;;;;;;5048955;28;20115;-61
2022/03/28 02:25:49;;;;;;;16.92;5.10;;;11.30;63.80;;;;;;5040821;28;20122;-61
2022/03/28 02:28:14;;;;;;;14.77;5.07;;;11.30;63.20;;;;;;5036776;28;20060;-61
2022/03/28 02:30:40;;;;;;;18.92;6.03;;;11.20;63.20;;;;;;5040904;28;20021;-61
2022/03/28 02:33:06;;;;;;;15.52;5.55;;;11.20;63.30;;;;;;5039881;28;20037;-61
2022/03/28 02:35:33;;;;;;;16.20;5.45;;;11.20;63.40;;;;;;5035383;28;20055;-61
2022/03/28 02:38:02;;;;;;;20.65;5.15;;;11.10;63.40;;;;;;5035659;28;20033;-61
2022/03/28 02:40:28;;;;;;;15.30;4.93;;;11.10;63.50;;;;;;5037437;28;20061;-61
2022/03/28 02:42:58;;;;;;;18.05;5.55;;;11.10;63.50;;;;;;5043820;28;20052;-61
2022/03/28 02:45:29;;;;;;;15.43;5.65;;;11.10;63.50;;;;;;5050065;28;20033;-61
2022/03/28 02:47:55;;;;;;;16.42;5.32;;;11.10;63.60;;;;;;5036513;28;20112;-61
2022/03/28 02:50:21;;;;;;;13.50;5.25;;;11.00;63.60;;;;;;5041607;28;20100;-61
2022/03/28 02:52:46;;;;;;;16.67;5.78;;;11.00;63.70;;;;;;5053668;28;20037;-61
2022/03/28 02:55:12;;;;;;;18.45;5.18;;;11.00;63.80;;;;;;5037231;28;20351;-61
2022/03/28 02:57:38;;;;;;;18.15;5.25;;;11.00;63.90;;;;;;5036792;28;20311;-61
2022/03/28 03:00:07;;;;;;;20.33;5.43;;;11.00;63.90;;;;;;5037499;28;20032;-61
2022/03/28 03:02:34;;;;;;;16.20;5.55;;;10.90;63.90;;;;;;5040392;28;20412;-61
2022/03/28 03:05:00;;;;;;;17.15;6.45;;;10.90;63.90;;;;;;5053383;28;20123;-61
2022/03/28 03:07:26;;;;;;;15.13;5.82;;;10.90;64.00;;;;;;5055008;28;20052;-61
2022/03/28 03:09:52;;;;;;;17.88;6.03;;;10.80;64.00;;;;;;5050685;28;20447;-61
2022/03/28 03:12:17;;;;;;;15.65;5.93;;;10.80;64.10;;;;;;5053616;28;20180;-61
2022/03/28 03:14:43;;;;;;;14.43;5.47;;;10.80;64.10;;;;;;5036343;28;20034;-61
2022/03/28 03:17:09;;;;;;;16.35;5.82;;;10.80;64.10;;;;;;5055795;28;20135;-61
2022/03/28 03:19:34;;;;;;;21.90;5.88;;;10.80;64.20;;;;;;5055024;28;20028;-61
2022/03/28 03:22:00;;;;;;;18.73;5.70;;;10.80;64.20;;;;;;5052388;28;20111;-61
2022/03/28 03:24:26;;;;;;;15.45;5.10;;;10.70;64.10;;;;;;5044714;28;20035;-61
2022/03/28 03:26:52;;;;;;;19.15;6.25;;;10.70;64.30;;;;;;5054448;28;20347;-61
2022/03/28 03:29:18;;;;;;;15.90;6.18;;;10.70;64.40;;;;;;5042015;28;20033;-61
2022/03/28 03:31:43;;;;;;;15.82;5.72;;;10.60;64.40;;;;;;5048070;28;20047;-61
2022/03/28 03:34:09;;;;;;;20.17;5.93;;;10.60;64.40;;;;;;5048900;28;20102;-61
2022/03/28 03:36:35;;;;;;;15.02;5.72;;;10.60;64.50;;;;;;5041948;28;20030;-61
2022/03/28 03:39:00;;;;;;;17.20;6.00;;;10.50;64.50;;;;;;5035380;28;20032;-61
2022/03/28 03:41:26;;;;;;;12.23;4.95;;;10.50;64.60;;;;;;5041978;28;20024;-61
2022/03/28 03:43:52;;;;;;;17.88;6.53;;;10.50;64.60;;;;;;5039602;28;20029;-61
2022/03/28 03:46:18;;;;;;;15.05;5.80;;;10.50;64.60;;;;;;5036422;28;20025;-62
2022/03/28 03:48:43;;;;;;;22.95;6.22;;;10.50;64.70;;;;;;5035173;28;20026;-61
2022/03/28 03:51:10;;;;;;;14.65;5.60;;;10.40;64.80;;;;;;5046075;28;20017;-61
2022/03/28 03:53:35;;;;;;;18.63;6.70;;;10.40;64.80;;;;;;5045011;28;20033;-61
2022/03/28 03:56:01;;;;;;;15.63;6.13;;;10.40;64.80;;;;;;5046044;28;20037;-61
2022/03/28 03:58:27;;;;;;;10.98;5.53;;;10.40;64.90;;;;;;5035024;28;20038;-61
2022/03/28 04:00:52;;;;;;;16.85;6.10;;;10.40;64.90;;;;;;5042624;28;20024;-61
2022/03/28 04:03:18;;;;;;;14.73;5.70;;;10.40;64.90;;;;;;5044402;28;20050;-61
2022/03/28 04:05:44;;;;;;;17.70;6.40;;;10.30;64.90;;;;;;5053977;28;20033;-61
2022/03/28 04:08:09;;;;;;;12.55;5.68;;;10.30;64.90;;;;;;5052894;28;20028;-61
2022/03/28 04:10:35;;;;;;;17.75;6.20;;;10.30;65.00;;;;;;5035395;28;20120;-61
2022/03/28 04:13:04;;;;;;;14.93;6.18;;;10.20;65.00;;;;;;5041671;28;20021;-61
2022/03/28 04:15:30;;;;;;;14.40;5.43;;;10.30;65.10;;;;;;5032907;28;20026;-61
2022/03/28 04:17:55;;;;;;;15.95;6.63;;;10.20;65.10;;;;;;5051645;28;20025;-61
2022/03/28 04:20:21;;;;;;;13.95;5.90;;;10.20;65.20;;;;;;5049857;28;20035;-61
2022/03/28 04:22:47;;;;;;;17.08;6.50;;;10.20;65.20;;;;;;5041629;28;20033;-61
2022/03/28 04:25:14;;;;;;;15.82;5.90;;;10.10;65.20;;;;;;5036999;28;20033;-61
2022/03/28 04:27:40;;;;;;;15.32;6.30;;;10.10;65.30;;;;;;5034965;28;20042;-61
2022/03/28 04:30:09;;;;;;;15.70;6.25;;;10.10;65.40;;;;;;5035276;28;20116;-61
2022/03/28 04:32:35;;;;;;;12.60;6.13;;;10.10;65.30;;;;;;5048703;28;20203;-61
2022/03/28 04:35:03;;;;;;;19.20;7.93;;;10.00;65.30;;;;;;5048770;28;20044;-61
2022/03/28 04:37:33;;;;;;;16.17;7.45;;;10.00;65.30;;;;;;5048937;28;20044;-61
2022/03/28 04:39:59;;;;;;;17.05;7.43;;;10.00;65.40;;;;;;5051993;28;20116;-61
2022/03/28 04:42:25;;;;;;;16.00;7.90;;;10.00;65.30;;;;;;5043703;28;20410;-61
2022/03/28 04:44:50;;;;;;;15.38;6.63;;;10.00;65.40;;;;;;5036726;28;20123;-61
2022/03/28 04:47:16;;;;;;;13.60;6.18;;;9.90;65.40;;;;;;5043988;28;20029;-61
2022/03/28 04:49:42;;;;;;;13.30;6.75;;;9.90;65.50;;;;;;5044205;28;20044;-61
2022/03/28 04:52:07;;;;;;;15.55;6.85;;;9.90;65.50;;;;;;5052976;28;20029;-61
2022/03/28 04:54:36;;;;;;;17.23;7.82;;;9.90;65.60;;;;;;5035601;28;20033;-61
2022/03/28 04:57:05;;;;;;;15.23;6.25;;;9.80;65.60;;;;;;5034369;28;20036;-61
2022/03/28 04:59:32;;;;;;;14.93;7.00;;;9.80;65.60;;;;;;5038964;28;20025;-61
2022/03/28 05:01:58;;;;;;;20.27;6.75;;;9.80;65.60;;;;;;5040539;28;20025;-61
2022/03/28 05:04:24;;;;;;;13.85;6.95;;;9.80;65.60;;;;;;5038615;28;20498;-61
2022/03/28 05:06:50;;;;;;;15.85;6.88;;;9.80;65.50;;;;;;5035082;28;20029;-61
2022/03/28 05:09:15;;;;;;;17.42;6.40;;;9.80;65.50;;;;;;5038408;28;20026;-61
2022/03/28 05:11:41;;;;;;;13.25;6.85;;;9.80;65.50;;;;;;5034353;28;20041;-61
2022/03/28 05:14:07;;;;;;;14.27;6.47;;;9.80;65.60;;;;;;5052436;28;20037;-61
2022/03/28 05:16:33;;;;;;;14.88;7.32;;;9.70;65.50;;;;;;5046909;28;20079;-61
2022/03/28 05:18:59;;;;;;;15.85;7.60;;;9.70;65.50;;;;;;5053913;28;20021;-61
2022/03/28 05:21:24;;;;;;;16.75;7.45;;;9.70;66.20;;;;;;5035189;28;20387;-61
2022/03/28 05:23:50;;;;;;;12.77;6.93;;;9.70;65.50;;;;;;5042105;28;20029;-61
2022/03/28 05:26:15;;;;;;;16.67;7.50;;;9.70;65.50;;;;;;5055197;28;20025;-61
2022/03/28 05:28:41;;;;;;;15.40;6.80;;;9.70;65.50;;;;;;5042179;28;20030;-61
2022/03/28 05:31:06;;;;;;;14.45;7.53;;;9.70;66.20;;;;;;5039200;28;20105;-61
2022/03/28 05:33:32;;;;;;;15.20;6.75;;;9.60;65.50;;;;;;5050346;28;20111;-61
2022/03/28 05:35:58;;;;;;;16.65;7.70;;;9.60;65.60;;;;;;5055924;28;20109;-61
2022/03/28 05:38:25;;;;;;;15.13;7.82;;;9.60;65.60;;;;;;5044956;28;20044;-61
2022/03/28 05:40:50;;;;;;;16.02;8.43;;;9.60;65.70;;;;;;5037703;28;20343;-61
2022/03/28 05:43:16;;;;;;;15.82;7.32;;;9.60;65.70;;;;;;5053963;28;20112;-61
2022/03/28 05:45:42;;;;;;;14.65;7.28;;;9.60;65.80;;;;;;5057599;28;20029;-61
2022/03/28 05:48:09;;;;;;;12.65;7.07;;;9.60;65.70;;;;;;5044017;28;20029;-61
2022/03/28 05:50:34;;;;;;;12.38;6.85;;;9.60;65.70;;;;;;5039816;28;20075;-61
2022/03/28 05:53:00;;;;;;;15.50;7.75;;;9.60;65.70;;;;;;5041558;28;20033;-61
2022/03/28 05:55:26;;;;;;;15.77;7.60;;;9.60;65.70;;;;;;5040703;28;20161;-62
2022/03/28 05:57:51;;;;;;;15.85;8.30;;;9.60;65.60;;;;;;5044773;28;20468;-62
2022/03/28 06:00:17;;;;;;;13.95;7.15;;;9.60;65.70;;;;;;5043899;28;20130;-62
2022/03/28 06:02:43;;;;;;;15.50;7.95;;;9.60;65.70;;;;;;5060702;28;20039;-62
2022/03/28 06:05:10;;;;;;;16.88;8.70;;;9.60;65.80;;;;;;5049407;28;20029;-62
2022/03/28 06:07:36;;;;;;;14.63;8.35;;;9.60;65.80;;;;;;5036162;28;20140;-62
2022/03/28 06:10:03;;;;;;;15.32;8.50;;;9.60;65.70;;;;;;5046481;28;20139;-62
2022/03/28 06:12:28;;;;;;;14.95;8.90;;;9.50;65.70;;;;;;5057084;28;20025;-62
2022/03/28 06:14:54;;;;;;;13.93;7.82;;;9.60;65.80;;;;;;5056099;28;20128;-62
2022/03/28 06:17:24;;;;;;;20.83;9.75;;;9.60;65.80;;;;;;5056056;28;20380;-62
2022/03/28 06:19:49;;;;;;;18.65;8.82;;;9.60;65.80;;;;;;5041570;28;20074;-62
2022/03/28 06:22:16;;;;;;;18.15;8.43;;;9.60;65.80;;;;;;5035848;28;20120;-62
2022/03/28 06:24:42;;;;;;;15.63;8.40;;;9.70;65.70;;;;;;5036196;28;20549;-62
2022/03/28 06:27:07;;;;;;;16.27;7.93;;;9.70;65.50;;;;;;5042671;28;20032;-62
2022/03/28 06:29:33;;;;;;;14.88;7.47;;;9.80;65.40;;;;;;5057231;28;20422;-62
2022/03/28 06:31:59;;;;;;;14.48;7.55;;;9.90;65.20;;;;;;5056868;28;20458;-62
2022/03/28 06:34:24;;;;;;;14.82;7.60;;;10.00;64.70;;;;;;5046325;28;20116;-62
2022/03/28 06:36:50;;;;;;;13.07;7.13;;;10.20;64.10;;;;;;5043358;28;20025;-62
2022/03/28 06:39:16;;;;;;;10.23;6.30;;;10.40;63.50;;;;;;5044083;28;20029;-62
2022/03/28 06:41:41;;;;;;;12.25;6.78;;;10.60;62.80;;;;;;5044535;28;20037;-63
2022/03/28 06:44:11;;;;;;;12.85;6.95;;;10.80;62.20;;;;;;5044212;28;20024;-63
2022/03/28 06:46:38;;;;;;;11.65;6.63;;;10.90;61.70;;;;;;5044985;28;20017;-62
2022/03/28 06:49:04;;;;;;;10.98;6.65;;;11.00;61.20;;;;;;5042189;28;20032;-63
2022/03/28 06:51:29;;;;;;;12.02;6.22;;;11.20;60.80;;;;;;5045292;28;20029;-62
2022/03/28 06:53:55;;;;;;;10.88;6.13;;;11.30;60.20;;;;;;5026645;28;20078;-62
2022/03/28 06:56:20;;;;;;;11.38;6.18;;;11.50;59.80;;;;;;5045303;28;21932;-62
2022/03/28 06:58:47;;;;;;;12.00;6.32;;;11.60;59.40;;;;;;5044746;28;20032;-62
2022/03/28 07:01:13;;;;;;;12.48;7.38;;;11.80;59.00;;;;;;5043699;28;20041;-62
2022/03/28 07:03:38;;;;;;;14.13;7.53;;;11.80;58.60;;;;;;5042371;28;20025;-62
2022/03/28 07:06:04;;;;;;;15.02;7.53;;;11.90;58.40;;;;;;5042964;28;20112;-62
2022/03/28 07:08:30;;;;;;;11.38;6.55;;;12.00;58.30;;;;;;5045501;28;20029;-62
2022/03/28 07:10:58;;;;;;;12.40;6.32;;;12.00;58.10;;;;;;5045302;28;20037;-62
2022/03/28 07:13:23;;;;;;;12.73;6.38;;;12.10;58.10;;;;;;5043727;28;20116;-62
2022/03/28 07:15:49;;;;;;;11.73;6.22;;;12.10;58.00;;;;;;5043943;28;20112;-61
2022/03/28 07:18:14;;;;;;;11.63;7.07;;;12.10;58.00;;;;;;5045975;28;20021;-62
2022/03/28 07:20:43;;;;;;;12.63;7.28;;;12.10;58.00;;;;;;5043686;28;20362;-61
2022/03/28 07:23:10;;;;;;;13.52;6.82;;;12.10;58.00;;;;;;5042339;28;20033;-61
2022/03/28 07:25:36;;;;;;;10.93;6.38;;;12.10;57.90;;;;;;5042580;28;20021;-61
2022/03/28 07:28:10;;;;;;;14.25;7.13;;;12.20;57.80;;;;;;5042496;28;20033;-61
2022/03/28 07:30:36;;;;;;;15.48;7.68;;;12.30;57.60;;;;;;5056023;28;20025;-61
2022/03/28 07:33:03;;;;;;;14.25;6.40;;;12.40;57.50;;;;;;5043539;28;20442;-61
2022/03/28 07:35:32;;;;;;;12.40;6.70;;;12.50;57.30;;;;;;5045258;28;20022;-61
2022/03/28 07:37:58;;;;;;;12.48;6.70;;;12.50;57.20;;;;;;5043044;28;20017;-61
2022/03/28 07:40:25;;;;;;;11.90;6.22;;;12.60;57.10;;;;;;5041432;28;20022;-61
2022/03/28 07:42:53;;;;;;;11.68;6.90;;;12.80;56.90;;;;;;5046705;28;20116;-61
2022/03/28 07:45:19;;;;;;;12.13;6.97;;;12.90;56.70;;;;;;5043849;28;20049;-61
2022/03/28 07:47:45;;;;;;;14.00;7.47;;;13.00;56.50;;;;;;5042218;28;20029;-61
2022/03/28 07:50:11;;;;;;;12.07;6.60;;;13.10;56.30;;;;;;5046362;28;20052;-61
2022/03/28 07:52:38;;;;;;;12.48;7.38;;;13.20;56.10;;;;;;5042948;28;20122;-61
2022/03/28 07:55:05;;;;;;;12.95;7.07;;;13.30;55.80;;;;;;5042081;28;20106;-61
2022/03/28 07:57:31;;;;;;;13.50;6.72;;;13.50;55.50;;;;;;5042319;28;20024;-61
2022/03/28 07:59:58;;;;;;;11.13;6.78;;;13.60;55.30;;;;;;5040788;28;20343;-61
2022/03/28 08:02:24;;;;;;;11.00;6.47;;;13.80;55.10;;;;;;5037843;28;20037;-61
2022/03/28 08:04:50;;;;;;;10.82;6.25;;;13.90;54.70;;;;;;5069225;28;20349;-61
2022/03/28 08:07:16;;;;;;;11.68;6.63;;;14.10;54.50;;;;;;5059991;28;20108;-61
2022/03/28 08:09:42;;;;;;;9.98;6.20;;;14.20;54.30;;;;;;5044659;28;20063;-62
2022/03/28 08:12:09;;;;;;;11.57;6.82;;;14.40;54.00;;;;;;5038080;28;20056;-62
2022/03/28 08:14:36;;;;;;;12.15;6.78;;;14.60;53.90;;;;;;5040490;28;20034;-61
2022/03/28 08:17:03;;;;;;;12.93;6.97;;;14.70;53.70;;;;;;5042999;28;20091;-61
2022/03/28 08:19:28;;;;;;;11.93;6.35;;;14.90;53.50;;;;;;5044432;28;20476;-62
2022/03/28 08:21:54;;;;;;;10.02;5.45;;;15.00;53.20;;;;;;5045237;28;20057;-62
2022/03/28 08:24:20;;;;;;;10.65;6.43;;;15.10;53.00;;;;;;5044300;28;20033;-62
2022/03/28 08:26:46;;;;;;;11.18;6.30;;;15.30;52.80;;;;;;5031908;28;20029;-63
2022/03/28 08:29:13;;;;;;;11.52;6.57;;;15.40;52.60;;;;;;5045716;28;20048;-62
2022/03/28 08:31:39;;;;;;;11.30;5.82;;;15.50;52.40;;;;;;5044194;28;20049;-63
2022/03/28 08:34:05;;;;;;;10.68;6.60;;;15.70;52.20;;;;;;5041390;28;20032;-63
2022/03/28 08:36:31;;;;;;;9.90;6.30;;;15.80;52.10;;;;;;5043558;28;20358;-62
2022/03/28 08:38:56;;;;;;;9.73;5.95;;;15.90;51.90;;;;;;5040994;28;20029;-63
2022/03/28 08:41:26;;;;;;;10.40;6.18;;;16.00;51.90;;;;;;5041125;28;20028;-62
2022/03/28 08:43:52;;;;;;;10.77;6.88;;;16.10;51.60;;;;;;5042620;28;20036;-62
2022/03/28 08:46:18;;;;;;;11.88;6.50;;;16.20;51.60;;;;;;5040984;28;20415;-62
2022/03/28 08:48:44;;;;;;;10.73;6.43;;;16.20;51.50;;;;;;5041476;28;20315;-63
2022/03/28 08:51:13;;;;;;;12.32;6.82;;;16.20;51.50;;;;;;5044971;28;20339;-63
2022/03/28 08:53:39;;;;;;;11.10;6.65;;;16.30;51.50;;;;;;5043043;28;20060;-61
2022/03/28 08:56:07;;;;;;;10.88;6.70;;;16.30;51.40;;;;;;5037084;28;20017;-61
2022/03/28 08:58:34;;;;;;;10.70;6.53;;;16.40;51.40;;;;;;5038337;28;20033;-61
2022/03/28 09:01:01;;;;;;;11.73;6.60;;;16.40;51.30;;;;;;5044151;28;20029;-61
2022/03/28 09:03:47;;;;;;;11.05;6.80;;;16.50;51.20;;;;;;5044636;28;20038;-60
2022/03/28 09:06:41;;;;;;;10.93;6.28;;;16.50;51.10;;;;;;5042868;28;20033;-62
2022/03/28 09:09:21;;;;;;;11.48;6.85;;;16.60;51.00;;;;;;5045108;28;20512;-61
2022/03/28 09:12:06;;;;;;;22.93;8.77;;;16.60;51.10;;;;;;5045569;28;20061;-62
2022/03/28 09:14:34;;;;;;;13.63;6.80;;;16.60;51.10;;;;;;5045403;28;20020;-62
2022/03/28 09:17:13;;;;;;;13.52;7.40;;;16.50;51.20;;;;;;5031517;28;20318;-61
2022/03/28 09:19:58;;;;;;;13.90;8.13;;;16.50;51.40;;;;;;5047769;28;20033;-62
2022/03/28 09:22:25;;;;;;;12.90;7.07;;;16.50;51.60;;;;;;5046277;28;20095;-62
2022/03/28 09:25:00;;;;;;;18.15;8.55;;;16.50;51.90;;;;;;5045839;28;20029;-61
2022/03/28 09:27:39;;;;;;;12.18;8.32;;;16.60;52.70;;;;;;5047354;28;20025;-60
2022/03/28 09:30:10;;;;;;;12.18;7.25;;;16.10;53.30;;;;;;5045531;28;20091;-60
2022/03/28 09:32:48;;;;;;;12.30;6.72;;;16.10;53.40;;;;;;5044818;28;20128;-61
2022/03/28 09:35:21;;;;;;;12.10;7.75;;;16.20;53.20;;;;;;5044033;28;20405;-60
2022/03/28 09:37:58;;;;;;;13.57;7.45;;;16.30;52.90;;;;;;5050597;28;20052;-60
2022/03/28 09:40:35;;;;;;;11.02;6.72;;;16.40;52.60;;;;;;5045511;28;20452;-61
2022/03/28 09:43:04;;;;;;;12.90;7.30;;;16.40;52.60;;;;;;5046764;28;20128;-61
2022/03/28 09:45:34;;;;;;;11.98;7.18;;;16.50;52.40;;;;;;5043463;28;20091;-60
2022/03/28 09:48:01;;;;;;;12.55;7.43;;;16.70;52.30;;;;;;5046162;28;20021;-61
2022/03/28 09:50:37;;;;;;;11.80;7.15;;;16.80;52.10;;;;;;5045089;28;20447;-61
2022/03/28 09:53:21;;;;;;;12.15;7.38;;;16.90;51.90;;;;;;5044379;28;20489;-61
2022/03/28 09:55:54;;;;;;;13.70;6.97;;;17.00;51.80;;;;;;5046179;28;20037;-60
2022/03/28 09:58:45;;;;;;;11.57;7.18;;;17.20;51.60;;;;;;5043339;28;20061;-61
2022/03/28 10:01:23;;;;;;;10.90;7.13;;;17.30;51.50;;;;;;5045898;28;20104;-61
2022/03/28 10:04:01;;;;;;;11.23;6.85;;;17.20;51.50;;;;;;5045578;28;20082;-61
2022/03/28 10:06:27;;;;;;;11.90;6.68;;;17.30;51.40;;;;;;5047366;28;20120;-61
2022/03/28 10:08:52;;;;;;;17.92;7.65;;;17.40;51.40;;;;;;5047077;28;20115;-60
2022/03/28 10:11:19;;;;;;;14.95;7.82;;;17.50;51.30;;;;;;5043142;28;20446;-60
2022/03/28 10:13:46;;;;;;;13.68;7.78;;;17.50;51.20;;;;;;5046572;28;20123;-61
2022/03/28 10:16:12;;;;;;;13.18;7.93;;;17.50;51.20;;;;;;5040956;28;20029;-61
2022/03/28 10:18:40;;;;;;;11.30;6.85;;;17.60;51.10;;;;;;5040335;28;20437;-61
2022/03/28 10:21:14;;;;;;;15.75;8.10;;;17.70;51.10;;;;;;5034914;28;20304;-61
2022/03/28 10:23:50;;;;;;;13.82;7.35;;;17.80;51.00;;;;;;5038519;28;20319;-61
2022/03/28 10:26:19;;;;;;;13.65;7.63;;;17.90;50.90;;;;;;5044074;28;20102;-61
2022/03/28 10:29:07;;;;;;;11.77;6.70;;;17.90;50.80;;;;;;5040681;28;20454;-61
2022/03/28 10:31:34;;;;;;;13.30;7.47;;;18.00;50.80;;;;;;5037496;28;20053;-61
2022/03/28 10:34:02;;;;;;;12.25;7.93;;;18.10;50.70;;;;;;5046105;28;20029;-61
2022/03/28 10:36:29;;;;;;;12.48;7.15;;;18.10;50.60;;;;;;5042026;28;20056;-61
2022/03/28 10:39:15;;;;;;;13.10;8.05;;;18.20;50.60;;;;;;5038557;28;21588;-61
2022/03/28 10:41:41;;;;;;;14.40;7.80;;;18.20;50.60;;;;;;5047747;28;20110;-61
2022/03/28 10:44:07;;;;;;;11.93;7.22;;;18.20;50.60;;;;;;5049011;28;20025;-60
2022/03/28 10:46:35;;;;;;;13.15;8.07;;;18.20;50.60;;;;;;5042432;28;20116;-61
2022/03/28 10:49:03;;;;;;;13.27;8.02;;;18.20;50.70;;;;;;5045673;28;20037;-61
2022/03/28 10:51:31;;;;;;;12.10;7.43;;;18.20;50.60;;;;;;5035955;28;20025;-61
2022/03/28 10:54:05;;;;;;;11.68;7.10;;;18.20;50.70;;;;;;5035846;28;20047;-61
2022/03/28 10:56:34;;;;;;;13.93;8.27;;;18.20;50.60;;;;;;5044765;28;20037;-61
2022/03/28 10:59:11;;;;;;;11.93;6.82;;;18.20;50.50;;;;;;5050804;28;20036;-61
2022/03/28 11:01:46;;;;;;;13.02;7.97;;;18.20;50.40;;;;;;5037681;28;20026;-61
2022/03/28 11:04:23;;;;;;;12.25;7.45;;;18.10;50.60;;;;;;5038876;28;20128;-61
2022/03/28 11:07:03;;;;;;;14.02;8.48;;;18.10;50.60;;;;;;5038046;28;20348;-61
2022/03/28 11:09:41;;;;;;;13.60;8.00;;;18.10;50.90;;;;;;5049131;28;20123;-61
2022/03/28 11:12:16;;;;;;;12.98;8.10;;;18.10;50.80;;;;;;5052270;28;20029;-61
2022/03/28 11:14:51;;;;;;;14.35;8.60;;;18.20;50.80;;;;;;5047533;28;20106;-61
2022/03/28 11:17:36;;;;;;;14.07;8.32;;;18.00;50.90;;;;;;5050152;28;20366;-61
2022/03/28 11:20:18;;;;;;;18.52;8.82;;;18.10;51.10;;;;;;5044303;28;20028;-61
2022/03/28 11:22:49;;;;;;;14.93;8.98;;;18.20;51.00;;;;;;5035267;28;20030;-61
2022/03/28 11:25:30;;;;;;;15.43;8.50;;;18.30;50.90;;;;;;5038552;28;20034;-61
2022/03/28 11:28:11;;;;;;;13.38;7.35;;;18.30;50.80;;;;;;5049350;28;20033;-61
2022/03/28 11:30:44;;;;;;;14.15;7.93;;;18.40;50.80;;;;;;5037998;28;20033;-61
2022/03/28 11:33:11;;;;;;;12.10;7.35;;;18.50;50.90;;;;;;5036050;28;20045;-61
2022/03/28 11:35:38;;;;;;;16.38;8.48;;;18.50;50.80;;;;;;5046276;28;20027;-61
2022/03/28 11:38:04;;;;;;;12.90;8.18;;;18.50;50.70;;;;;;5041790;28;20021;-61
2022/03/28 11:40:40;;;;;;;12.07;7.30;;;18.50;50.90;;;;;;5043662;28;20033;-61
2022/03/28 11:43:06;;;;;;;13.30;8.35;;;18.50;51.20;;;;;;5036796;28;20051;-61
2022/03/28 11:45:33;;;;;;;15.23;7.93;;;18.40;51.20;;;;;;5021125;28;20033;-61
2022/03/28 11:48:01;;;;;;;15.25;8.20;;;18.40;51.20;;;;;;5036267;28;20029;-61
2022/03/28 11:50:32;;;;;;;13.57;8.63;;;18.40;51.30;;;;;;5039000;28;20064;-61
2022/03/28 11:52:58;;;;;;;12.60;7.00;;;18.40;51.30;;;;;;5017840;28;20131;-61
2022/03/28 11:55:26;;;;;;;16.00;8.52;;;18.50;51.30;;;;;;5050018;28;20517;-61
2022/03/28 12:00:39;;;;;;;16.48;8.85;;;18.50;51.40;;;;;;5036544;28;20116;-61
2022/03/28 12:03:08;;;;;;;16.27;8.65;;;18.30;51.50;;;;;;5051770;28;20071;-61
2022/03/28 12:05:40;;;;;;;14.00;8.43;;;18.40;51.70;;;;;;5045524;28;20029;-61
2022/03/28 12:08:13;;;;;;;18.23;9.30;;;18.40;51.60;;;;;;5040762;28;20040;-61
2022/03/28 12:10:41;;;;;;;16.45;8.68;;;18.40;51.50;;;;;;5044315;28;20410;-61
2022/03/28 12:13:07;;;;;;;15.45;8.57;;;18.40;51.60;;;;;;5039050;28;20350;-61
2022/03/28 12:15:47;;;;;;;15.80;9.15;;;18.40;51.70;;;;;;5036446;28;20021;-61
2022/03/28 12:18:16;;;;;;;15.65;8.68;;;18.30;51.80;;;;;;5047010;28;20407;-61
2022/03/28 12:20:51;;;;;;;15.20;8.85;;;18.40;51.90;;;;;;5034833;28;20119;-61
2022/03/28 12:23:19;;;;;;;18.42;9.32;;;18.30;51.90;;;;;;5048407;28;20052;-61
2022/03/28 12:25:49;;;;;;;15.90;8.40;;;18.20;52.10;;;;;;5046163;28;20064;-61
2022/03/28 12:28:26;;;;;;;15.65;8.88;;;18.20;52.20;;;;;;5037840;28;20065;-61
2022/03/28 12:30:55;;;;;;;17.67;9.40;;;18.20;52.20;;;;;;5038555;28;20335;-61
2022/03/28 12:33:26;;;;;;;14.60;8.65;;;18.20;52.20;;;;;;5026748;28;20045;-61
2022/03/28 12:36:11;;;;;;;15.20;9.38;;;18.20;52.20;;;;;;5042349;28;20106;-61
2022/03/28 12:38:40;;;;;;;15.95;9.02;;;18.20;52.30;;;;;;5044807;28;20360;-61
2022/03/28 12:41:11;;;;;;;17.90;9.95;;;18.10;52.30;;;;;;5035957;28;20053;-60
2022/03/28 12:43:37;;;;;;;20.98;9.27;;;18.10;52.40;;;;;;5033934;28;20064;-61
2022/03/28 12:46:05;;;;;;;15.35;9.38;;;18.10;52.50;;;;;;5034386;28;20581;-61
2022/03/28 12:48:44;;;;;;;19.98;10.38;;;18.00;52.60;;;;;;5040268;28;20108;-61